Time;durP1;ratioP1;P1;durP2;ratioP2;P2;SDS_P1;SDS_P2;PMS_P1;PMS_P2;Temp;Humidity;BMP_temperature;BMP_pressure;BME280_temperature;BME280_humidity;BME280_pressure;Samples;Min_cycle;Max_cycle;Signal;HPM_P1;HPM_P2
2023/05/15 00:01:09;;;;;;;40.60;24.67;;;;;;;;;;4992914;28;20128;-67
2023/05/15 00:03:35;;;;;;;44.72;24.70;;;;;;;;;;4991757;28;20418;-69
2023/05/15 00:06:01;;;;;;;43.83;27.05;;;;;;;;;;4992628;28;20046;-67
2023/05/15 00:08:26;;;;;;;38.15;25.83;;;12.20;99.90;;;;;;4993370;28;20400;-68
2023/05/15 00:10:52;;;;;;;41.67;27.20;;;12.10;99.90;;;;;;4992462;28;20046;-67
2023/05/15 00:13:18;;;;;;;42.65;24.88;;;12.10;99.90;;;;;;4992521;28;20070;-67
2023/05/15 00:15:44;;;;;;;41.70;26.73;;;;;;;;;;4992278;28;20042;-67
2023/05/15 00:18:10;;;;;;;44.60;26.88;;;;;;;;;;4976418;28;20053;-67
2023/05/15 00:20:35;;;;;;;37.67;25.67;;;12.10;99.90;;;;;;4992602;28;20046;-66
2023/05/15 00:23:01;;;;;;;38.13;25.73;;;12.00;99.90;;;;;;4992824;28;20496;-67
2023/05/15 00:25:26;;;;;;;43.63;25.90;;;12.00;99.90;;;;;;4992339;28;20065;-67
2023/05/15 00:27:52;;;;;;;34.35;24.20;;;;;;;;;;4992498;28;20061;-67
2023/05/15 00:30:18;;;;;;;35.28;24.00;;;;;;;;;;4992595;28;20071;-68
2023/05/15 00:32:44;;;;;;;34.35;24.75;;;11.80;99.90;;;;;;4993826;28;20130;-68
2023/05/15 00:35:09;;;;;;;33.55;22.75;;;12.00;99.90;;;;;;4992574;28;20034;-66
2023/05/15 00:37:35;;;;;;;34.97;23.60;;;11.90;99.90;;;;;;4992739;28;20046;-68
2023/05/15 00:40:01;;;;;;;35.67;23.52;;;;;;;;;;4992510;28;20174;-67
2023/05/15 00:42:27;;;;;;;37.92;24.00;;;11.80;99.90;;;;;;4991883;28;20042;-67
2023/05/15 00:44:55;;;;;;;33.33;21.65;;;11.90;99.90;;;;;;4992489;28;20337;-66
2023/05/15 00:47:21;;;;;;;37.55;23.90;;;;;;;;;;4992316;28;20077;-67
2023/05/15 00:49:48;;;;;;;31.42;22.42;;;11.90;99.90;;;;;;4992600;28;20125;-67
2023/05/15 00:52:14;;;;;;;38.40;24.15;;;11.80;99.90;;;;;;4992098;28;20397;-67
2023/05/15 00:54:40;;;;;;;38.63;23.55;;;11.70;99.90;;;;;;4991841;28;20037;-66
2023/05/15 00:57:08;;;;;;;40.85;23.80;;;11.70;99.90;;;;;;4992022;28;20038;-67
2023/05/15 00:59:34;;;;;;;40.88;25.35;;;;;;;;;;4991137;28;20069;-67
2023/05/15 01:02:00;;;;;;;41.67;26.60;;;;;;;;;;4991662;28;20042;-67
2023/05/15 01:04:26;;;;;;;35.13;23.40;;;;;;;;;;4991214;28;20052;-67
2023/05/15 01:06:52;;;;;;;36.45;24.08;;;;;;;;;;4991750;28;20133;-67
2023/05/15 01:09:19;;;;;;;37.70;24.52;;;11.70;99.90;;;;;;4990514;28;20049;-68
2023/05/15 01:11:45;;;;;;;39.85;25.92;;;11.70;99.90;;;;;;4992005;28;20038;-68
2023/05/15 01:14:11;;;;;;;37.92;24.13;;;11.80;99.90;;;;;;4991760;28;20046;-67
2023/05/15 01:16:37;;;;;;;38.28;25.08;;;11.50;99.90;;;;;;4991686;28;20093;-67
2023/05/15 01:19:04;;;;;;;35.05;24.17;;;11.50;99.90;;;;;;4991503;28;20045;-67
2023/05/15 01:21:36;;;;;;;44.65;25.90;;;11.40;99.90;;;;;;4991438;28;20034;-67
2023/05/15 01:24:11;;;;;;;38.38;25.10;;;11.60;99.90;;;;;;4975775;28;20050;-67
2023/05/15 01:27:01;;;;;;;38.42;25.65;;;11.50;99.90;;;;;;4991529;28;20532;-67
2023/05/15 01:29:55;;;;;;;36.85;23.25;;;11.70;99.90;;;;;;4991548;28;20119;-68
2023/05/15 01:32:45;;;;;;;39.78;26.38;;;11.50;99.90;;;;;;4991467;28;20042;-67
2023/05/15 01:35:25;;;;;;;38.38;24.88;;;11.70;99.90;;;;;;4991468;28;20603;-67
2023/05/15 01:38:14;;;;;;;42.45;26.92;;;11.40;99.90;;;;;;4991728;28;20042;-67
2023/05/15 01:40:40;;;;;;;41.80;25.83;;;11.40;99.90;;;;;;4992109;28;20046;-66
2023/05/15 01:43:14;;;;;;;42.78;26.75;;;11.40;99.90;;;;;;4991235;28;20072;-67
2023/05/15 01:45:42;;;;;;;39.65;25.17;;;11.40;99.90;;;;;;4991203;28;20063;-66
2023/05/15 01:48:08;;;;;;;47.15;26.90;;;11.30;99.90;;;;;;4991233;28;20045;-67
2023/05/15 01:50:37;;;;;;;45.00;27.70;;;11.50;99.90;;;;;;4990891;28;20034;-66
2023/05/15 01:53:06;;;;;;;47.17;27.92;;;11.30;99.90;;;;;;4991041;28;20038;-67
2023/05/15 01:55:33;;;;;;;43.50;26.00;;;;;;;;;;4991147;28;20050;-67
2023/05/15 01:58:01;;;;;;;39.55;26.65;;;11.60;99.90;;;;;;4991207;28;20042;-67
2023/05/15 02:00:28;;;;;;;44.33;25.85;;;11.40;99.90;;;;;;4990851;28;20077;-67
2023/05/15 02:02:54;;;;;;;48.25;27.02;;;11.50;99.90;;;;;;4990869;28;20046;-67
2023/05/15 02:05:21;;;;;;;45.22;26.35;;;11.50;99.90;;;;;;4990354;28;20042;-67
2023/05/15 02:07:48;;;;;;;41.95;27.38;;;11.60;99.90;;;;;;4990730;28;20045;-67
2023/05/15 02:10:16;;;;;;;45.40;27.48;;;11.60;99.90;;;;;;4991028;28;20121;-67
2023/05/15 02:12:42;;;;;;;50.90;27.88;;;;;;;;;;4990703;28;20512;-66
2023/05/15 02:15:12;;;;;;;42.63;27.05;;;11.70;99.90;;;;;;4990901;28;20038;-67
2023/05/15 02:17:38;;;;;;;44.25;25.55;;;;;;;;;;4991035;28;20046;-67
2023/05/15 02:20:05;;;;;;;41.45;25.35;;;;;;;;;;4990833;28;20385;-67
2023/05/15 02:22:30;;;;;;;36.80;23.60;;;11.50;99.90;;;;;;4974116;28;20046;-67
2023/05/15 02:24:56;;;;;;;37.65;23.55;;;;;;;;;;4990855;28;20463;-67
2023/05/15 02:27:35;;;;;;;36.08;23.17;;;11.40;99.90;;;;;;4991861;28;20050;-67
2023/05/15 02:30:33;;;;;;;36.05;22.63;;;11.50;99.90;;;;;;4991128;28;20082;-67
2023/05/15 02:33:07;;;;;;;34.95;23.10;;;11.20;99.90;;;;;;4990818;28;20034;-67
2023/05/15 02:36:01;;;;;;;32.42;22.05;;;11.40;99.90;;;;;;4990917;28;20046;-67
2023/05/15 02:38:36;;;;;;;;;;;11.40;99.90;;;;;;4975256;28;20447;-67
2023/05/15 02:41:04;;;;;;;34.55;21.23;;;11.30;99.90;;;;;;4990278;28;19918;-67
2023/05/15 02:43:31;;;;;;;33.70;21.70;;;11.10;99.90;;;;;;4974599;28;20065;-67
2023/05/15 02:45:58;;;;;;;37.70;23.35;;;11.10;99.90;;;;;;4990584;28;20042;-67
2023/05/15 02:48:25;;;;;;;35.90;23.52;;;11.20;99.90;;;;;;4991763;28;20061;-67
2023/05/15 02:50:51;;;;;;;40.47;25.95;;;;;;;;;;4990699;28;20050;-67
2023/05/15 02:53:17;;;;;;;37.53;25.98;;;11.40;99.90;;;;;;4990452;28;20131;-67
2023/05/15 02:55:42;;;;;;;41.03;25.77;;;11.20;99.90;;;;;;4990415;28;20512;-67
2023/05/15 02:58:09;;;;;;;35.47;25.13;;;;;;;;;;4990406;28;20045;-67
2023/05/15 03:00:34;;;;;;;39.95;25.30;;;11.50;99.90;;;;;;4990450;28;20415;-66
2023/05/15 03:03:00;;;;;;;38.20;24.13;;;;;;;;;;4990503;28;20046;-67
2023/05/15 03:05:26;;;;;;;32.45;22.42;;;11.40;99.90;;;;;;4989977;28;20146;-67
2023/05/15 03:07:52;;;;;;;36.10;22.52;;;;;;;;;;4990367;28;20699;-67
2023/05/15 03:10:17;;;;;;;31.45;22.13;;;11.50;99.90;;;;;;4990482;28;20043;-67
2023/05/15 03:12:43;;;;;;;30.50;20.95;;;11.70;99.90;;;;;;4990219;28;20078;-67
2023/05/15 03:15:09;;;;;;;37.63;21.77;;;;;;;;;;4990153;28;20126;-66
2023/05/15 03:17:35;;;;;;;31.33;21.13;;;;;;;;;;4992949;28;20041;-67
2023/05/15 03:20:00;;;;;;;30.63;20.10;;;11.40;99.90;;;;;;4993949;28;20234;-67
2023/05/15 03:22:26;;;;;;;34.65;21.85;;;11.40;99.90;;;;;;4993611;28;20084;-67
2023/05/15 03:24:51;;;;;;;29.65;19.90;;;11.40;99.90;;;;;;4993981;28;20042;-67
2023/05/15 03:27:17;;;;;;;28.15;19.40;;;;;;;;;;4993735;28;20057;-67
2023/05/15 03:29:43;;;;;;;26.13;18.85;;;11.30;99.90;;;;;;4994057;28;20042;-67
2023/05/15 03:32:09;;;;;;;30.35;19.48;;;11.60;99.90;;;;;;4993108;28;20076;-67
2023/05/15 03:34:35;;;;;;;29.30;19.27;;;11.50;99.90;;;;;;4993453;28;20111;-67
2023/05/15 03:37:01;;;;;;;31.38;20.42;;;11.60;99.90;;;;;;4992860;28;20053;-68
2023/05/15 03:39:26;;;;;;;31.52;20.67;;;11.50;99.90;;;;;;4993905;28;20046;-68
2023/05/15 03:41:52;;;;;;;28.20;19.15;;;;;;;;;;4992974;28;20134;-67
2023/05/15 03:44:18;;;;;;;30.98;19.45;;;;;;;;;;4993489;28;20053;-67
2023/05/15 03:46:44;;;;;;;27.98;19.38;;;;;;;;;;4977217;28;20042;-67
2023/05/15 03:49:10;;;;;;;26.92;19.05;;;11.60;99.90;;;;;;4993632;28;20034;-67
2023/05/15 03:51:36;;;;;;;29.63;18.67;;;;;;;;;;4992330;28;20389;-67
2023/05/15 03:54:04;;;;;;;26.38;18.92;;;11.80;99.90;;;;;;4993060;28;20042;-67
2023/05/15 03:56:30;;;;;;;27.85;19.42;;;11.80;99.90;;;;;;4992191;28;20042;-67
2023/05/15 03:58:56;;;;;;;26.20;18.80;;;11.70;99.90;;;;;;4994500;28;20373;-67
2023/05/15 04:01:21;;;;;;;34.92;19.58;;;11.90;99.90;;;;;;4993050;28;20046;-67
2023/05/15 04:03:47;;;;;;;27.73;18.08;;;;;;;;;;4994567;28;20560;-67
2023/05/15 04:06:13;;;;;;;28.05;18.98;;;;;;;;;;4992989;28;20046;-68
2023/05/15 04:08:39;;;;;;;27.42;18.25;;;11.90;99.90;;;;;;4993347;28;20184;-67
2023/05/15 04:11:05;;;;;;;24.42;17.95;;;;;;;;;;4992643;28;20057;-67
2023/05/15 04:13:31;;;;;;;29.95;19.63;;;11.80;99.90;;;;;;4976965;28;20042;-67
2023/05/15 04:15:58;;;;;;;33.17;19.50;;;11.80;99.90;;;;;;4993029;28;20042;-67
2023/05/15 04:18:24;;;;;;;28.50;17.88;;;;;;;;;;4993216;28;20427;-67
2023/05/15 04:20:51;;;;;;;25.92;19.13;;;;;;;;;;4992639;28;20046;-67
2023/05/15 04:23:17;;;;;;;28.20;18.73;;;12.00;99.90;;;;;;4993831;28;20078;-68
2023/05/15 04:25:45;;;;;;;27.63;19.67;;;11.80;99.90;;;;;;4993991;28;20610;-68
2023/05/15 04:28:11;;;;;;;24.50;18.83;;;11.90;99.90;;;;;;4975897;28;20145;-67
2023/05/15 04:30:37;;;;;;;27.88;19.42;;;11.90;99.90;;;;;;4992235;28;20030;-67
2023/05/15 04:33:03;;;;;;;27.70;20.52;;;;;;;;;;4992435;28;20411;-68
2023/05/15 04:35:29;;;;;;;28.17;19.23;;;11.90;99.90;;;;;;4992227;28;20038;-67
2023/05/15 04:37:55;;;;;;;23.70;18.33;;;;;;;;;;4993650;28;20435;-67
2023/05/15 04:40:20;;;;;;;27.83;19.77;;;12.20;99.90;;;;;;4992292;28;20483;-68
2023/05/15 04:42:46;;;;;;;25.75;18.52;;;12.10;99.90;;;;;;4992281;28;20042;-67
2023/05/15 04:45:12;;;;;;;25.52;18.92;;;12.00;99.90;;;;;;4976068;28;20130;-67
2023/05/15 04:47:37;;;;;;;27.77;18.35;;;11.90;99.90;;;;;;4992127;28;20500;-68
2023/05/15 04:50:04;;;;;;;28.92;19.67;;;;;;;;;;4992155;28;20099;-68
2023/05/15 04:52:31;;;;;;;29.88;20.50;;;;;;;;;;4992047;28;20042;-67
2023/05/15 04:54:56;;;;;;;27.48;19.42;;;12.20;99.90;;;;;;4992305;28;20050;-68
2023/05/15 04:57:22;;;;;;;32.53;20.88;;;11.90;99.90;;;;;;4992730;28;20572;-68
2023/05/15 04:59:48;;;;;;;33.58;21.73;;;;;;;;;;4991695;28;20046;-68
2023/05/15 05:02:14;;;;;;;27.05;20.17;;;12.10;99.90;;;;;;4991835;28;20064;-67
2023/05/15 05:04:44;;;;;;;27.80;19.77;;;12.20;99.90;;;;;;4992057;28;20496;-67
2023/05/15 05:07:10;;;;;;;38.35;19.98;;;12.00;99.90;;;;;;4991714;28;20136;-67
2023/05/15 05:09:38;;;;;;;30.95;20.95;;;12.30;99.90;;;;;;4991747;28;20078;-67
2023/05/15 05:12:05;;;;;;;28.92;20.88;;;12.10;99.90;;;;;;4991733;28;20049;-68
2023/05/15 05:14:31;;;;;;;30.45;20.27;;;;;;;;;;4992480;28;20108;-67
2023/05/15 05:16:57;;;;;;;25.63;19.23;;;12.20;99.90;;;;;;4991213;28;20094;-67
2023/05/15 05:19:22;;;;;;;30.48;22.10;;;12.10;99.90;;;;;;4991740;28;20130;-68
2023/05/15 05:21:48;;;;;;;30.75;20.83;;;12.50;99.90;;;;;;4989965;28;20452;-67
2023/05/15 05:24:13;;;;;;;28.50;20.13;;;12.60;99.90;;;;;;4976525;28;20088;-67
2023/05/15 05:26:42;;;;;;;38.40;22.45;;;12.70;99.90;;;;;;4993261;28;20038;-67
2023/05/15 05:29:08;;;;;;;27.90;21.13;;;12.70;99.90;;;;;;4991153;28;20046;-67
2023/05/15 05:31:34;;;;;;;30.33;21.50;;;;;;;;;;4990134;28;20122;-67
2023/05/15 05:34:00;;;;;;;34.60;22.63;;;;;;;;;;4991498;28;20092;-67
2023/05/15 05:36:26;;;;;;;33.00;22.25;;;;;;;;;;4990807;28;20535;-67
2023/05/15 05:38:51;;;;;;;27.38;20.23;;;12.50;99.90;;;;;;4990863;28;20042;-67
2023/05/15 05:41:17;;;;;;;28.88;21.15;;;12.60;99.90;;;;;;4989815;28;20042;-67
2023/05/15 05:43:43;;;;;;;32.90;21.20;;;12.50;99.90;;;;;;4991247;28;20037;-67
2023/05/15 05:46:09;;;;;;;26.83;19.05;;;12.80;99.90;;;;;;4990545;28;20067;-68
2023/05/15 05:48:35;;;;;;;26.50;19.38;;;12.70;99.90;;;;;;4974296;28;20088;-67
2023/05/15 05:51:01;;;;;;;24.17;17.88;;;12.60;99.90;;;;;;4991083;28;20122;-67
2023/05/15 05:53:27;;;;;;;26.40;17.70;;;;;;;;;;4991229;28;20461;-67
2023/05/15 05:55:53;;;;;;;23.45;15.85;;;12.80;99.90;;;;;;4989697;28;20419;-67
2023/05/15 05:58:19;;;;;;;18.05;13.57;;;;;;;;;;4982606;28;20043;-67
2023/05/15 06:00:46;;;;;;;18.23;14.57;;;12.70;99.90;;;;;;4971035;28;20772;-67
2023/05/15 06:03:12;;;;;;;17.15;12.73;;;;;;;;;;4970349;28;20057;-68
2023/05/15 06:05:38;;;;;;;20.40;14.50;;;;;;;;;;4973057;28;20100;-67
2023/05/15 06:08:05;;;;;;;23.48;15.18;;;;;;;;;;4970864;28;20121;-68
2023/05/15 06:10:31;;;;;;;21.67;16.23;;;;;;;;;;4963728;28;20045;-67
2023/05/15 06:12:57;;;;;;;24.23;15.48;;;13.00;99.90;;;;;;4982704;28;20408;-67
2023/05/15 06:15:23;;;;;;;19.00;14.23;;;;;;;;;;4973059;28;20031;-68
2023/05/15 06:17:49;;;;;;;21.63;13.30;;;;;;;;;;4980885;28;20050;-68
2023/05/15 06:20:15;;;;;;;15.50;13.05;;;;;;;;;;4972888;28;20050;-68
2023/05/15 06:22:41;;;;;;;15.15;12.40;;;;;;;;;;4973879;28;20042;-67
2023/05/15 06:25:07;;;;;;;19.05;13.63;;;;;;;;;;4954831;28;20039;-68
2023/05/15 06:27:33;;;;;;;18.52;15.05;;;13.30;99.90;;;;;;4974407;28;20568;-68
2023/05/15 06:29:59;;;;;;;25.23;17.73;;;;;;;;;;4975443;28;20058;-67
2023/05/15 06:32:25;;;;;;;22.80;16.08;;;;;;;;;;4977115;28;20046;-68
2023/05/15 06:34:51;;;;;;;24.55;17.25;;;;;;;;;;4973668;28;20053;-68
2023/05/15 06:37:17;;;;;;;19.92;15.05;;;;;;;;;;4970866;28;20121;-67
2023/05/15 06:39:43;;;;;;;20.83;15.05;;;;;;;;;;4973097;28;20047;-67
2023/05/15 06:42:09;;;;;;;20.90;15.32;;;;;;;;;;4980094;28;20521;-66
2023/05/15 06:44:35;;;;;;;22.38;16.08;;;;;;;;;;4970349;28;20108;-67
2023/05/15 06:47:01;;;;;;;23.17;16.58;;;;;;;;;;4985271;28;20133;-67
2023/05/15 06:49:27;;;;;;;20.20;16.20;;;14.40;99.90;;;;;;4979535;28;20070;-67
2023/05/15 06:51:53;;;;;;;21.38;16.48;;;14.60;99.90;;;;;;4982362;28;20607;-66
2023/05/15 06:54:19;;;;;;;24.70;19.42;;;;;;;;;;4981869;28;20488;-67
2023/05/15 06:56:45;;;;;;;28.63;17.85;;;14.40;99.90;;;;;;4986412;28;20073;-67
2023/05/15 06:59:11;;;;;;;26.15;18.25;;;14.70;99.90;;;;;;4985045;28;20076;-68
2023/05/15 07:01:37;;;;;;;22.30;16.50;;;;;;;;;;4974092;28;20043;-67
2023/05/15 07:04:03;;;;;;;21.17;16.27;;;14.60;99.90;;;;;;4984827;28;20042;-67
2023/05/15 07:06:32;;;;;;;20.58;16.15;;;;;;;;;;4966613;28;20406;-66
2023/05/15 07:08:58;;;;;;;21.23;16.02;;;15.00;99.90;;;;;;4978069;28;20050;-67
2023/05/15 07:11:25;;;;;;;21.02;15.63;;;;;;;;;;4985749;28;20093;-67
2023/05/15 07:13:53;;;;;;;19.20;14.55;;;15.40;99.90;;;;;;4982863;28;20042;-67
2023/05/15 07:16:19;;;;;;;18.73;14.88;;;;;;;;;;4985469;28;20073;-67
2023/05/15 07:18:45;;;;;;;19.98;14.35;;;15.50;99.90;;;;;;4979155;28;20078;-67
2023/05/15 07:21:12;;;;;;;23.13;16.17;;;;;;;;;;4985451;28;20046;-68
2023/05/15 07:23:37;;;;;;;23.60;16.45;;;15.10;99.90;;;;;;4978234;28;20496;-67
2023/05/15 07:26:03;;;;;;;23.35;17.55;;;;;;;;;;4984360;28;20041;-67
2023/05/15 07:28:29;;;;;;;20.67;16.52;;;15.00;99.90;;;;;;4963852;28;20093;-68
2023/05/15 07:30:54;;;;;;;23.10;16.98;;;14.80;99.90;;;;;;4987272;28;20070;-67
2023/05/15 07:33:20;;;;;;;19.02;15.23;;;;;;;;;;4974502;28;20030;-67
2023/05/15 07:35:46;;;;;;;23.33;17.75;;;;;;;;;;4989496;28;20130;-68
2023/05/15 07:38:12;;;;;;;24.27;17.80;;;;;;;;;;4989509;28;20069;-67
2023/05/15 07:40:38;;;;;;;28.10;16.63;;;;;;;;;;4991628;28;20104;-68
2023/05/15 07:43:04;;;;;;;23.17;15.90;;;;;;;;;;5008445;28;20496;-67
2023/05/15 07:45:30;;;;;;;14.38;12.68;;;;;;;;;;4992752;28;20409;-67
2023/05/15 07:47:57;;;;;;;19.40;11.70;;;;;;;;;;4992209;28;20089;-69
2023/05/15 07:50:23;;;;;;;18.00;11.00;;;;;;;;;;5008214;28;20121;-68
2023/05/15 07:52:49;;;;;;;14.98;11.05;;;15.60;99.90;;;;;;4991676;28;20042;-68
2023/05/15 07:55:15;;;;;;;14.57;12.77;;;;;;;;;;4990615;28;20484;-67
2023/05/15 07:57:40;;;;;;;13.18;11.27;;;15.40;99.90;;;;;;4991576;28;20100;-69
2023/05/15 08:00:12;;;;;;;14.05;10.60;;;15.30;99.90;;;;;;4992768;28;20042;-68
2023/05/15 08:02:38;;;;;;;15.60;12.20;;;15.70;99.90;;;;;;4975490;28;20077;-69
2023/05/15 08:05:04;;;;;;;15.85;11.90;;;15.70;99.90;;;;;;4992984;28;20042;-68
2023/05/15 08:07:34;;;;;;;16.60;10.45;;;15.60;99.90;;;;;;4992127;28;20126;-69
2023/05/15 08:10:00;;;;;;;10.57;9.45;;;;;;;;;;4992701;28;20038;-69
2023/05/15 08:12:26;;;;;;;10.98;9.43;;;;;;;;;;4975451;28;20045;-68
2023/05/15 08:14:55;;;;;;;16.42;9.77;;;15.90;99.90;;;;;;4976146;28;20149;-68
2023/05/15 08:17:21;;;;;;;18.15;9.95;;;16.40;99.90;;;;;;4992231;28;20070;-69
2023/05/15 08:19:48;;;;;;;12.30;9.93;;;16.20;99.90;;;;;;4991723;28;20117;-69
2023/05/15 08:22:14;;;;;;;12.45;10.32;;;16.60;99.90;;;;;;4991934;28;20042;-68
2023/05/15 08:24:41;;;;;;;13.13;9.82;;;16.80;99.90;;;;;;4992777;28;20518;-69
2023/05/15 08:27:07;;;;;;;14.52;11.88;;;16.70;99.90;;;;;;4994516;28;20038;-69
2023/05/15 08:29:34;;;;;;;16.55;10.23;;;16.50;99.90;;;;;;4993430;28;20034;-69
2023/05/15 08:32:00;;;;;;;15.38;12.07;;;16.40;99.90;;;;;;4991659;28;20035;-69
2023/05/15 08:34:26;;;;;;;15.60;10.93;;;16.10;99.90;;;;;;4975417;28;20096;-69
2023/05/15 08:36:52;;;;;;;13.07;10.40;;;;;;;;;;4991882;28;20041;-69
2023/05/15 08:39:18;;;;;;;13.82;9.85;;;17.00;99.90;;;;;;4991466;28;20049;-69
2023/05/15 08:42:09;;;;;;;11.57;9.88;;;16.90;99.90;;;;;;4983033;28;20038;-67
2023/05/15 08:44:35;;;;;;;13.93;9.80;;;17.00;99.90;;;;;;4989406;28;20071;-68
2023/05/15 08:47:01;;;;;;;14.05;9.07;;;16.70;99.90;;;;;;4989459;28;20046;-68
2023/05/15 08:49:45;;;;;;;12.60;10.57;;;16.70;99.90;;;;;;4991302;28;20030;-67
2023/05/15 08:52:10;;;;;;;12.93;10.55;;;16.90;99.90;;;;;;4989956;28;20518;-67
2023/05/15 08:54:39;;;;;;;13.48;8.98;;;17.00;99.90;;;;;;4991410;28;20045;-66
2023/05/15 08:57:05;;;;;;;14.10;8.93;;;17.30;99.90;;;;;;4991419;28;20043;-66
2023/05/15 08:59:31;;;;;;;13.63;10.77;;;17.40;99.90;;;;;;4990550;28;20125;-67
2023/05/15 09:01:56;;;;;;;18.20;12.18;;;17.40;99.90;;;;;;4990811;28;20038;-66
2023/05/15 09:04:22;;;;;;;13.55;10.68;;;17.40;99.90;;;;;;4990814;28;20571;-67
2023/05/15 09:06:48;;;;;;;17.35;11.85;;;17.20;99.90;;;;;;4990839;28;20066;-67
2023/05/15 09:09:17;;;;;;;15.02;11.32;;;17.30;99.90;;;;;;4989107;28;20038;-66
2023/05/15 09:11:44;;;;;;;16.75;13.00;;;17.40;99.90;;;;;;4990782;28;20038;-67
2023/05/15 09:14:10;;;;;;;18.95;12.45;;;17.20;99.90;;;;;;4990897;28;20527;-66
2023/05/15 09:16:36;;;;;;;17.67;12.52;;;17.80;99.90;;;;;;4990471;28;20042;-67
2023/05/15 09:19:02;;;;;;;15.75;11.95;;;18.20;99.90;;;;;;4991300;28;20045;-67
2023/05/15 09:21:30;;;;;;;16.45;11.65;;;18.00;99.90;;;;;;4991021;28;20034;-67
2023/05/15 09:24:16;;;;;;;15.48;11.82;;;17.90;99.90;;;;;;4990382;28;20563;-67
2023/05/15 09:26:46;;;;;;;15.77;11.35;;;17.70;99.90;;;;;;4990863;28;20054;-65
2023/05/15 09:29:15;;;;;;;14.57;11.95;;;17.80;99.90;;;;;;4991773;28;20042;-66
2023/05/15 09:31:41;;;;;;;13.63;11.48;;;18.10;99.90;;;;;;4990289;28;20177;-66
2023/05/15 09:34:09;;;;;;;18.38;12.85;;;17.80;99.90;;;;;;4990622;28;20121;-65
2023/05/15 09:36:35;;;;;;;15.55;12.85;;;17.50;99.90;;;;;;4991270;28;20080;-65
2023/05/15 09:39:01;;;;;;;12.02;10.75;;;17.60;99.90;;;;;;4992272;28;20079;-65
2023/05/15 09:41:27;;;;;;;15.32;11.30;;;18.10;99.90;;;;;;4991943;28;20053;-66
2023/05/15 09:43:55;;;;;;;14.80;12.07;;;17.90;99.90;;;;;;4973182;28;20038;-66
2023/05/15 09:46:21;;;;;;;13.38;11.23;;;17.90;99.90;;;;;;5006256;28;20203;-67
2023/05/15 09:48:48;;;;;;;14.45;12.68;;;18.50;99.90;;;;;;5002718;28;20045;-68
2023/05/15 09:51:16;;;;;;;15.10;11.90;;;18.00;99.90;;;;;;4971930;28;20129;-68
2023/05/15 09:53:46;;;;;;;14.60;11.38;;;18.20;99.90;;;;;;4990941;28;20042;-68
2023/05/15 09:56:13;;;;;;;13.02;11.10;;;18.10;99.90;;;;;;4990656;28;20066;-69
2023/05/15 09:58:52;;;;;;;15.73;11.45;;;18.50;99.90;;;;;;4990927;28;20042;-67
2023/05/15 10:01:19;;;;;;;19.17;11.93;;;19.40;99.90;;;;;;4991601;28;20049;-67
2023/05/15 10:04:02;;;;;;;12.68;11.20;;;18.20;99.90;;;;;;4990482;28;20061;-67
2023/05/15 10:06:42;;;;;;;12.98;10.52;;;18.10;99.90;;;;;;4990405;28;20404;-68
2023/05/15 10:09:09;;;;;;;12.65;10.73;;;18.10;99.90;;;;;;4991394;28;20428;-68
2023/05/15 10:11:42;;;;;;;13.82;9.93;;;18.60;99.90;;;;;;4990672;28;20113;-68
2023/05/15 10:14:09;;;;;;;16.73;10.68;;;18.40;99.90;;;;;;4989549;28;20046;-69
2023/05/15 10:16:37;;;;;;;16.63;10.88;;;18.70;99.90;;;;;;4989374;28;20136;-67
2023/05/15 10:19:04;;;;;;;14.00;10.43;;;18.60;99.90;;;;;;4990556;28;20082;-69
2023/05/15 10:21:35;;;;;;;13.63;9.98;;;18.90;99.90;;;;;;4989862;28;20061;-69
2023/05/15 10:24:01;;;;;;;13.13;10.80;;;18.40;99.90;;;;;;4990753;28;20228;-68
2023/05/15 10:26:41;;;;;;;18.13;11.45;;;19.30;99.90;;;;;;4993212;28;20455;-69
2023/05/15 10:29:11;;;;;;;12.77;10.82;;;18.20;99.90;;;;;;4989512;28;20066;-68
2023/05/15 10:31:39;;;;;;;15.77;10.75;;;18.10;99.90;;;;;;4980800;28;20045;-67
2023/05/15 10:34:05;;;;;;;13.18;10.80;;;17.80;99.90;;;;;;4957195;28;20046;-68
2023/05/15 10:36:31;;;;;;;14.32;11.20;;;17.90;99.90;;;;;;4989093;28;20089;-67
2023/05/15 10:38:59;;;;;;;13.05;10.63;;;17.70;99.90;;;;;;4978710;28;20042;-67
2023/05/15 10:41:27;;;;;;;12.52;9.85;;;18.20;99.90;;;;;;4984149;28;20117;-66
2023/05/15 10:43:54;;;;;;;13.20;9.07;;;17.90;99.90;;;;;;4980852;28;20047;-68
2023/05/15 10:46:20;;;;;;;15.07;10.90;;;18.20;99.90;;;;;;4986591;28;20069;-69
2023/05/15 10:48:46;;;;;;;11.35;9.50;;;18.60;99.90;;;;;;4980239;28;20066;-67
2023/05/15 10:51:30;;;;;;;13.77;10.07;;;18.20;99.90;;;;;;4988327;28;20086;-67
2023/05/15 10:53:56;;;;;;;12.85;10.90;;;18.50;99.90;;;;;;4986058;28;20126;-68
2023/05/15 10:56:37;;;;;;;14.15;11.05;;;18.50;99.90;;;;;;4984524;28;20069;-68
2023/05/15 10:59:10;;;;;;;15.77;11.50;;;19.30;99.90;;;;;;4977745;28;20046;-68
2023/05/15 11:01:37;;;;;;;14.18;12.65;;;18.50;99.90;;;;;;4994231;28;20030;-67
2023/05/15 11:04:08;;;;;;;15.25;11.68;;;18.60;99.90;;;;;;4995601;28;20042;-68
2023/05/15 11:06:39;;;;;;;15.27;11.43;;;18.30;99.90;;;;;;4996336;28;20035;-68
2023/05/15 11:09:33;;;;;;;14.88;11.60;;;18.30;99.90;;;;;;4976683;28;20327;-67
2023/05/15 11:12:06;;;;;;;15.52;12.25;;;18.50;99.90;;;;;;4993730;28;20197;-67
2023/05/15 11:14:35;;;;;;;15.32;11.95;;;18.10;99.90;;;;;;4995673;28;20038;-68
2023/05/15 11:17:06;;;;;;;16.10;11.82;;;19.90;99.90;;;;;;4996680;28;20053;-68
2023/05/15 11:19:34;;;;;;;14.88;11.75;;;17.70;99.90;;;;;;4995651;28;20125;-67
2023/05/15 11:22:26;;;;;;;13.45;10.93;;;18.00;99.90;;;;;;4994898;28;20147;-68
2023/05/15 11:25:11;;;;;;;13.40;11.52;;;18.00;99.90;;;;;;4995332;28;20050;-68
2023/05/15 11:27:41;;;;;;;13.82;10.93;;;18.30;99.90;;;;;;4993981;28;20526;-68
2023/05/15 11:30:07;;;;;;;13.93;10.27;;;18.40;99.90;;;;;;5012062;28;20121;-68
2023/05/15 11:32:47;;;;;;;10.55;9.18;;;18.10;99.90;;;;;;4995177;28;20117;-68
2023/05/15 11:35:20;;;;;;;11.77;8.95;;;18.90;99.90;;;;;;4993499;28;20038;-68
2023/05/15 11:37:48;;;;;;;13.57;8.75;;;18.80;99.90;;;;;;4994447;28;20125;-68
2023/05/15 11:40:26;;;;;;;11.90;8.00;;;18.80;99.90;;;;;;4991744;28;20169;-68
2023/05/15 11:43:06;;;;;;;10.40;8.48;;;19.10;99.90;;;;;;4991143;28;20047;-68
2023/05/15 11:45:35;;;;;;;9.10;8.13;;;19.10;99.90;;;;;;4994127;28;20160;-67
2023/05/15 11:48:02;;;;;;;11.88;7.72;;;18.60;99.90;;;;;;4991014;28;20065;-69
2023/05/15 11:50:30;;;;;;;8.43;6.85;;;18.50;99.90;;;;;;4992799;28;20046;-68
2023/05/15 11:52:56;;;;;;;9.27;7.13;;;18.30;99.90;;;;;;4992375;28;20393;-68
2023/05/15 11:55:22;;;;;;;7.68;6.88;;;18.40;99.90;;;;;;4976422;28;20053;-69
2023/05/15 11:57:48;;;;;;;8.80;7.10;;;18.10;99.90;;;;;;4993740;28;20423;-68
2023/05/15 12:00:14;;;;;;;10.52;7.57;;;18.10;99.90;;;;;;4990261;28;20038;-67
2023/05/15 12:02:40;;;;;;;10.55;7.88;;;17.90;99.90;;;;;;4992556;28;20039;-68
2023/05/15 12:05:07;;;;;;;8.65;7.72;;;18.80;99.90;;;;;;4992705;28;20050;-67
2023/05/15 12:07:37;;;;;;;9.40;6.78;;;17.60;99.90;;;;;;4993095;28;20086;-68
2023/05/15 12:10:03;;;;;;;13.43;7.13;;;17.90;99.90;;;;;;4992325;28;20042;-69
2023/05/15 12:12:29;;;;;;;11.43;7.45;;;17.70;99.90;;;;;;4992545;28;20042;-68
2023/05/15 12:14:58;;;;;;;9.98;6.40;;;18.30;99.90;;;;;;4975983;28;20038;-69
2023/05/15 12:17:24;;;;;;;9.10;6.57;;;17.60;99.90;;;;;;4991776;28;20519;-69
2023/05/15 12:19:51;;;;;;;8.45;6.85;;;18.30;99.90;;;;;;4992114;28;20034;-69
2023/05/15 12:22:17;;;;;;;8.40;7.35;;;17.30;99.90;;;;;;4969453;28;20077;-68
2023/05/15 12:24:44;;;;;;;17.88;8.00;;;17.20;99.90;;;;;;4993457;28;20042;-69
2023/05/15 12:27:10;;;;;;;11.75;6.95;;;17.00;99.90;;;;;;4992883;28;20053;-69
2023/05/15 12:29:37;;;;;;;8.38;7.55;;;17.20;99.90;;;;;;4976124;28;20125;-69
2023/05/15 12:32:04;;;;;;;9.52;7.60;;;17.40;99.90;;;;;;4992338;28;20065;-68
2023/05/15 12:34:29;;;;;;;10.73;7.25;;;17.00;99.90;;;;;;4991805;28;20038;-69
2023/05/15 12:36:58;;;;;;;10.85;7.43;;;17.50;99.90;;;;;;4992360;28;20053;-69
2023/05/15 12:39:24;;;;;;;7.40;6.47;;;18.40;99.90;;;;;;4975049;28;20116;-69
2023/05/15 12:41:53;;;;;;;10.65;6.85;;;17.80;99.90;;;;;;4991473;28;20099;-69
2023/05/15 12:44:19;;;;;;;10.63;7.05;;;18.40;99.90;;;;;;4993283;28;20070;-69
2023/05/15 12:46:46;;;;;;;10.85;7.85;;;17.50;99.90;;;;;;4974823;28;20518;-70
2023/05/15 12:49:11;;;;;;;10.93;7.60;;;17.10;99.90;;;;;;4991162;28;20121;-69
2023/05/15 12:51:43;;;;;;;15.20;9.50;;;17.30;99.90;;;;;;4991170;28;20185;-69
2023/05/15 12:54:19;;;;;;;13.23;9.32;;;16.90;99.90;;;;;;4991436;28;20420;-69
2023/05/15 12:56:46;;;;;;;12.70;9.32;;;17.50;99.90;;;;;;4991824;28;20042;-69
2023/05/15 12:59:12;;;;;;;11.73;9.88;;;16.80;99.90;;;;;;4990763;28;20046;-69